Amber, NY

7:24 PM EDT on March 30, 2015 (GMT -0400)
Otisco Lake | | Change Station
CLOSE
Current Station
Personal Weather Station
Location: Marietta, NY
Elevation: 1140 ft
Nearby Weather Stations

Elev 1140 ft 42.87 °N, 76.27 °W | Updated 4 seconds ago

Overcast
Overcast
35.1 °F
Feels Like 29 °F
N
7.9
Wind Variable Wind from WSW
Gusts 11.1 mph

Today
High -- | Low -- °F
--% Chance of Precip.
Yesterday
High -- | Low -- °F
Precip. -- in
6:51 AM 7:28 PM
Waxing Gibbous, 83% visible
Pressure 29.78 in
Visibility 10.0 miles
Clouds Few 4500 ft
Mostly Cloudy 6500 ft
Mostly Cloudy 9500 ft
Windchill 29 °F
Dew Point 30 °F
Humidity 82%
Rainfall 0.02 in
Snow Depth Not available.
UV 0 out of 12
Pollen .60 out of 12
Air Quality Not available.
Flu Activity Not available.
METAR KSYR 302254Z 26011KT 10SM FEW045 BKN065 BKN095 04/M01 A2978 RMK AO2 SLP084 FEW V SCT T00391006

More Conditions Fewer Conditions

Pressure 29.78 in
Visibility 10.0 miles
Clouds Few 4500 ft
Mostly Cloudy 6500 ft
Mostly Cloudy 9500 ft
Windchill 29 °F
Dew Point 30 °F
Humidity 82%
Rainfall 0.02 in
Snow Depth Not available.
UV 0 out of 12
Pollen .60 out of 12
Air Quality Not available.
Flu Activity Not available.
METAR KSYR 302254Z 26011KT 10SM FEW045 BKN065 BKN095 04/M01 A2978 RMK AO2 SLP084 FEW V SCT T00391006

More Conditions Fewer Conditions

10-Day Weather Forecast

Almanac

Astronomy

Mar. 30, 2015 Rise Set
Actual Time
Civil Twilight
Nautical Twilight
Astronomical Twilight
Moon
Length of Visible Light
Length of Day
Tomorrow will be .
, % of the Moon is Illuminated

Today's Extremes

State Highs State Lows

Community

WunderPhotos

Upload Photos

1,809,620 photos uploaded!

WunderBlogs® & News

Nearby

Air Quality

  Air Quality AQ Index Pollutant
Not available.

Snow Depth

Station Depth Elevation

Earthquake Activity

City Distance Mag. Time & Date
Minimum magnitude displayed is 2.5.

Coastal Water Temperatures

Place Temperature

Stations

Nearby Weather Stations

Station Location Temp. Windchill Dew Point Humidity Wind Precip. Elev Updated Type